Time;durP1;ratioP1;P1;durP2;ratioP2;P2;SDS_P1;SDS_P2;PMS_P1;PMS_P2;Temp;Humidity;BMP_temperature;BMP_pressure;BME280_temperature;BME280_humidity;BME280_pressure;Samples;Min_cycle;Max_cycle;Signal;HPM_P1;HPM_P2
2022/12/24 00:00:14;;;;;;;23.00;8.50;;;;;;;;;;4989881;28;20046;-91
2022/12/24 00:02:42;;;;;;;19.23;7.13;;;;;;;;;;5000456;28;20128;-90
2022/12/24 00:05:14;;;;;;;19.73;6.95;;;;;;;;;;5001034;28;20042;-89
2022/12/24 00:07:42;;;;;;;26.17;7.38;;;;;;;;;;4984434;28;20042;-89
2022/12/24 00:10:11;;;;;;;21.23;6.53;;;;;;;;;;5010672;28;20080;-89
2022/12/24 00:12:42;;;;;;;21.83;6.55;;;;;;;;;;5007798;28;20038;-89
2022/12/24 00:15:10;;;;;;;23.70;7.13;;;;;;;;;;5010718;28;20397;-89
2022/12/24 00:17:38;;;;;;;22.58;6.88;;;;;;;;;;4992094;28;20044;-89
2022/12/24 00:20:07;;;;;;;27.40;7.07;;;;;;;;;;5008104;28;20038;-90
2022/12/24 00:22:39;;;;;;;17.27;7.13;;;;;;;;;;5012183;28;20077;-90
2022/12/24 00:25:06;;;;;;;25.13;8.20;;;;;;;;;;5008447;28;20038;-90
2022/12/24 00:27:34;;;;;;;26.60;6.70;;;;;;;;;;5009232;28;20048;-90
2022/12/24 00:30:02;;;;;;;25.55;7.35;;;;;;;;;;5013247;28;20042;-89
2022/12/24 00:32:30;;;;;;;22.58;7.32;;;;;;;;;;5011362;28;20038;-88
2022/12/24 00:35:02;;;;;;;24.52;6.28;;;;;;;;;;5007867;28;20053;-89
2022/12/24 00:37:30;;;;;;;23.90;7.05;;;;;;;;;;4983696;28;20077;-90
2022/12/24 00:39:58;;;;;;;21.23;6.95;;;;;;;;;;5006251;28;20450;-90
2022/12/24 00:42:26;;;;;;;26.95;6.88;;;;;;;;;;5027098;28;20124;-90
2022/12/24 00:44:54;;;;;;;18.35;6.40;;;;;;;;;;5030185;28;20084;-92
2022/12/24 00:47:22;;;;;;;21.70;8.27;;;;;;;;;;5012283;28;20601;-92
2022/12/24 00:49:50;;;;;;;22.30;7.35;;;;;;;;;;5028830;28;20047;-90
2022/12/24 00:52:18;;;;;;;22.67;7.38;;;;;;;;;;5026564;28;20036;-92
2022/12/24 00:54:46;;;;;;;27.00;7.05;;;;;;;;;;5030498;28;20128;-91
2022/12/24 00:57:14;;;;;;;23.58;7.35;;;;;;;;;;5006644;28;20029;-91
2022/12/24 00:59:46;;;;;;;25.45;6.55;;;;;;;;;;5027318;28;20052;-92
2022/12/24 01:02:14;;;;;;;20.27;6.50;;;;;;;;;;5032264;28;20069;-89
2022/12/24 01:07:28;;;;;;;27.52;6.30;;;;;;;;;;5029018;28;20068;-91
2022/12/24 01:09:56;;;;;;;20.88;6.63;;;;;;;;;;5013431;28;20044;-92
2022/12/24 01:12:28;;;;;;;20.17;6.70;;;;;;;;;;5033053;28;20038;-93
2022/12/24 01:15:00;;;;;;;32.65;7.88;;;;;;;;;;5002190;28;20049;-93
2022/12/24 01:17:31;;;;;;;22.90;6.32;;;;;;;;;;4995741;28;20042;-93
2022/12/24 01:19:58;;;;;;;19.52;6.47;;;;;;;;;;5035109;28;20037;-93
2022/12/24 01:22:30;;;;;;;23.17;7.25;;;;;;;;;;5009488;28;20041;-93
2022/12/24 01:25:03;;;;;;;24.63;7.47;;;;;;;;;;5006823;28;20101;-95
2022/12/24 01:27:31;;;;;;;22.35;6.68;;;;;;;;;;5009455;28;20038;-95
2022/12/24 01:30:24;;;;;;;24.35;7.20;;;;;;;;;;5008553;28;20029;-95
2022/12/24 01:32:56;;;;;;;24.35;6.28;;;;;;;;;;5015970;28;20064;-95
2022/12/24 01:35:30;;;;;;;24.05;8.15;;;;;;;;;;4971571;28;20057;-95
2022/12/24 01:37:58;;;;;;;19.55;7.05;;;;;;;;;;5015357;28;20442;-95
2022/12/24 01:43:23;;;;;;;25.98;7.57;;;;;;;;;;5012788;28;20049;-95
2022/12/24 01:46:18;;;;;;;21.10;6.80;;;;;;;;;;5018306;28;20033;-95
2022/12/24 01:49:13;;;;;;;30.80;6.38;;;;;;;;;;5014391;28;20037;-95
2022/12/24 01:52:05;;;;;;;25.08;7.05;;;;;;;;;;4991186;28;20048;-90
2022/12/24 01:54:43;;;;;;;23.02;6.53;;;;;;;;;;5025075;28;20684;-90
2022/12/24 01:57:34;;;;;;;31.08;7.90;;;;;;;;;;5024579;28;20569;-89
2022/12/24 02:00:10;;;;;;;23.67;6.93;;;;;;;;;;4994322;28;20073;-90
2022/12/24 02:02:40;;;;;;;20.80;6.40;;;;;;;;;;5029581;28;20398;-90
2022/12/24 02:05:23;;;;;;;20.83;6.85;;;;;;;;;;5012038;28;20041;-89
2022/12/24 02:07:59;;;;;;;16.48;6.10;;;;;;;;;;5023725;28;20052;-89
2022/12/24 02:10:32;;;;;;;19.63;5.75;;;;;;;;;;5032522;28;20644;-90
2022/12/24 02:13:01;;;;;;;16.42;6.93;;;;;;;;;;5013260;28;20029;-92
2022/12/24 02:15:50;;;;;;;17.92;5.55;;;;;;;;;;4979741;28;20052;-91
2022/12/24 02:18:32;;;;;;;19.00;6.20;;;;;;;;;;5027146;28;20096;-92
2022/12/24 02:21:32;;;;;;;19.60;6.32;;;;;;;;;;5018203;28;20049;-91
2022/12/24 02:24:40;;;;;;;22.40;5.75;;;;;;;;;;4992349;28;20030;-94
2022/12/24 02:27:36;;;;;;;18.45;5.57;;;;;;;;;;4993674;28;20045;-94
2022/12/24 02:30:40;;;;;;;20.67;5.88;;;;;;;;;;5017633;28;20037;-93
2022/12/24 02:33:19;;;;;;;20.42;6.70;;;;;;;;;;5019674;28;20396;-93
2022/12/24 02:36:08;;;;;;;15.13;5.60;;;;;;;;;;4991157;28;20041;-95
2022/12/24 02:38:43;;;;;;;14.35;5.78;;;;;;;;;;4991882;28;20037;-95
2022/12/24 02:44:36;;;;;;;17.52;5.85;;;;;;;;;;5006523;28;20455;-94
2022/12/24 02:47:07;;;;;;;13.55;5.05;;;;;;;;;;5022636;28;20487;-95
2022/12/24 02:49:44;;;;;;;13.88;5.60;;;;;;;;;;5021099;28;20083;-94
2022/12/24 02:52:41;;;;;;;19.27;5.60;;;;;;;;;;4992649;28;20076;-90
2022/12/24 02:55:39;;;;;;;22.50;5.82;;;;;;;;;;5032262;28;20481;-90
2022/12/24 02:58:40;;;;;;;20.27;6.13;;;;;;;;;;5033766;28;20148;-89
2022/12/24 03:01:20;;;;;;;13.98;4.93;;;;;;;;;;5032770;28;20510;-90
2022/12/24 03:03:59;;;;;;;17.05;5.60;;;;;;;;;;5015280;28;20128;-91
2022/12/24 03:07:04;;;;;;;13.52;4.97;;;;;;;;;;5031577;28;20045;-91
2022/12/24 03:09:46;;;;;;;15.27;5.20;;;;;;;;;;5030660;28;20088;-91
2022/12/24 03:12:45;;;;;;;17.02;6.18;;;;;;;;;;5032392;28;20041;-90
2022/12/24 03:15:38;;;;;;;15.82;5.60;;;;;;;;;;5033003;28;20041;-92
2022/12/24 03:18:10;;;;;;;14.57;4.47;;;;;;;;;;5001180;28;20052;-93
2022/12/24 03:20:46;;;;;;;17.25;5.38;;;;;;;;;;5022858;28;20046;-92
2022/12/24 03:23:14;;;;;;;18.95;5.45;;;;;;;;;;5025700;28;20041;-93
2022/12/24 03:25:44;;;;;;;14.82;5.18;;;;;;;;;;5015607;28;20049;-95
2022/12/24 03:28:15;;;;;;;13.95;4.75;;;;;;;;;;5003064;28;20050;-94
2022/12/24 03:30:45;;;;;;;12.23;4.78;;;;;;;;;;5007738;28;20975;-94
2022/12/24 03:33:17;;;;;;;13.80;5.00;;;;;;;;;;5010279;28;20060;-95
2022/12/24 03:35:45;;;;;;;12.20;4.80;;;;;;;;;;5001181;28;20068;-94
2022/12/24 03:38:18;;;;;;;15.50;4.90;;;;;;;;;;5009799;28;20400;-95
2022/12/24 03:40:46;;;;;;;16.02;4.65;;;;;;;;;;5016213;28;20038;-95
2022/12/24 03:43:14;;;;;;;12.23;4.53;;;;;;;;;;5022699;28;20034;-94
2022/12/24 03:45:42;;;;;;;15.93;4.68;;;;;;;;;;5018106;28;20965;-94
2022/12/24 03:48:10;;;;;;;11.93;4.90;;;;;;;;;;5014700;28;20080;-92
2022/12/24 03:50:38;;;;;;;14.15;4.63;;;;;;;;;;4995034;28;20052;-93
2022/12/24 03:53:30;;;;;;;10.85;4.13;;;;;;;;;;5019180;28;20088;-93
2022/12/24 03:55:58;;;;;;;15.98;4.45;;;;;;;;;;5011174;28;20132;-92
2022/12/24 03:58:52;;;;;;;9.65;4.18;;;;;;;;;;5032258;28;20041;-90
2022/12/24 04:01:20;;;;;;;18.45;4.68;;;;;;;;;;5032398;28;20052;-90
2022/12/24 04:03:48;;;;;;;15.93;4.75;;;;;;;;;;5029719;28;20037;-89
2022/12/24 04:06:20;;;;;;;10.77;4.28;;;;;;;;;;5006643;28;20160;-89
2022/12/24 04:08:48;;;;;;;16.42;5.00;;;;;;;;;;5029549;28;20506;-90
2022/12/24 04:14:12;;;;;;;13.48;4.75;;;;;;;;;;5031729;28;20630;-89
2022/12/24 04:16:40;;;;;;;12.45;4.45;;;;;;;;;;5028366;28;20046;-90
2022/12/24 04:19:34;;;;;;;12.77;4.95;;;;;;;;;;5032028;28;20167;-90
2022/12/24 04:22:26;;;;;;;10.90;4.10;;;;;;;;;;5026590;28;20034;-89
2022/12/24 04:24:54;;;;;;;12.07;4.30;;;;;;;;;;5028782;28;20076;-90
2022/12/24 04:27:22;;;;;;;10.57;4.03;;;;;;;;;;5012844;28;20132;-90
2022/12/24 04:29:56;;;;;;;12.90;4.57;;;;;;;;;;5030742;28;20041;-89
2022/12/24 04:32:28;;;;;;;19.05;5.65;;;;;;;;;;5026664;28;20456;-89
2022/12/24 04:34:56;;;;;;;11.85;4.75;;;;;;;;;;5029995;28;20041;-90
2022/12/24 04:37:24;;;;;;;11.90;4.80;;;;;;;;;;5024816;28;20065;-90
2022/12/24 04:39:56;;;;;;;16.45;5.13;;;;;;;;;;5027787;28;20511;-90
2022/12/24 04:42:24;;;;;;;13.98;4.47;;;;;;;;;;5023986;28;20095;-89
2022/12/24 04:44:52;;;;;;;12.23;4.53;;;;;;;;;;5030968;28;20078;-89
2022/12/24 04:47:24;;;;;;;13.60;4.70;;;;;;;;;;5023041;28;20034;-90
2022/12/24 04:49:52;;;;;;;12.98;4.55;;;;;;;;;;5031614;28;20043;-89
2022/12/24 04:52:24;;;;;;;14.65;4.75;;;;;;;;;;5024820;28;20084;-88
2022/12/24 04:54:52;;;;;;;12.50;5.00;;;;;;;;;;5031775;28;20037;-89
2022/12/24 04:57:24;;;;;;;15.23;5.03;;;;;;;;;;5027179;28;20038;-89
2022/12/24 04:59:52;;;;;;;16.02;4.65;;;;;;;;;;5030249;28;20095;-89
2022/12/24 05:02:24;;;;;;;12.38;5.13;;;;;;;;;;5030005;28;20081;-89
2022/12/24 05:04:52;;;;;;;14.50;5.82;;;;;;;;;;5032661;28;20079;-93
2022/12/24 05:07:24;;;;;;;13.90;4.70;;;;;;;;;;5025531;28;20048;-94
2022/12/24 05:09:52;;;;;;;11.98;4.38;;;;;;;;;;5035215;28;20129;-92
2022/12/24 05:12:22;;;;;;;16.60;4.80;;;;;;;;;;4986705;28;20045;-92
2022/12/24 05:14:54;;;;;;;16.65;5.35;;;;;;;;;;4992702;28;20372;-93
2022/12/24 05:17:22;;;;;;;14.70;5.13;;;;;;;;;;5029300;28;20091;-94
2022/12/24 05:19:50;;;;;;;17.50;5.20;;;;;;;;;;5024062;28;20050;-90
2022/12/24 05:27:56;;;;;;;15.48;4.85;;;;;;;;;;4991190;28;20117;-93
2022/12/24 05:30:24;;;;;;;13.60;4.18;;;;;;;;;;5015340;28;20395;-93
2022/12/24 05:33:16;;;;;;;11.30;4.13;;;;;;;;;;5019524;28;20040;-93
2022/12/24 05:35:44;;;;;;;13.52;4.93;;;;;;;;;;5030257;28;20407;-93
2022/12/24 05:38:16;;;;;;;11.55;4.25;;;;;;;;;;5006763;28;20049;-93
2022/12/24 05:40:45;;;;;;;10.73;4.32;;;;;;;;;;5014206;28;20041;-93
2022/12/24 05:43:38;;;;;;;13.98;4.68;;;;;;;;;;5016873;28;20032;-94
2022/12/24 05:46:09;;;;;;;14.48;4.70;;;;;;;;;;5017918;28;20041;-95
2022/12/24 05:48:36;;;;;;;11.43;3.58;;;;;;;;;;4991451;28;20453;-95
2022/12/24 05:51:06;;;;;;;12.25;3.97;;;;;;;;;;4996902;28;20041;-94
2022/12/24 05:54:00;;;;;;;14.25;3.75;;;;;;;;;;5002118;28;20029;-95
2022/12/24 05:56:28;;;;;;;14.93;4.90;;;;;;;;;;4999036;28;20140;-93
2022/12/24 05:58:56;;;;;;;13.10;4.22;;;;;;;;;;4994903;28;20068;-89
2022/12/24 06:01:24;;;;;;;13.35;4.63;;;;;;;;;;5028128;28;20513;-89
2022/12/24 06:03:52;;;;;;;10.07;4.22;;;;;;;;;;5011011;28;20164;-90
2022/12/24 06:06:22;;;;;;;10.93;4.40;;;;;;;;;;4986859;28;20052;-89
2022/12/24 06:08:52;;;;;;;11.90;4.20;;;;;;;;;;5027975;28;20095;-89
2022/12/24 06:11:26;;;;;;;15.68;4.22;;;;;;;;;;5028186;28;20099;-90
2022/12/24 06:13:55;;;;;;;9.60;3.03;;;;;;;;;;5027085;28;20435;-90
2022/12/24 06:16:24;;;;;;;9.98;3.80;;;;;;;;;;5022353;28;20064;-89
2022/12/24 06:18:53;;;;;;;10.65;4.10;;;;;;;;;;5002910;28;20045;-89
2022/12/24 06:21:20;;;;;;;10.70;4.15;;;;;;;;;;5010578;28;20129;-89
2022/12/24 06:23:52;;;;;;;8.95;3.75;;;;;;;;;;5026914;28;20038;-90
2022/12/24 06:26:21;;;;;;;9.63;3.13;;;;;;;;;;5012955;28;20136;-90
2022/12/24 06:28:49;;;;;;;9.38;3.45;;;;;;;;;;5027932;28;20103;-90
2022/12/24 06:31:42;;;;;;;10.43;4.13;;;;;;;;;;5010439;28;20029;-90
2022/12/24 06:34:34;;;;;;;10.68;3.08;;;;;;;;;;5020856;28;20041;-90
2022/12/24 06:37:02;;;;;;;11.85;3.78;;;;;;;;;;5010884;28;20046;-89
2022/12/24 06:39:30;;;;;;;12.07;3.58;;;;;;;;;;5028104;28;20484;-90
2022/12/24 06:41:58;;;;;;;8.15;2.95;;;;;;;;;;5030340;28;20141;-89
2022/12/24 06:44:50;;;;;;;11.45;3.00;;;;;;;;;;5026247;28;20399;-90
2022/12/24 06:47:18;;;;;;;9.55;2.83;;;;;;;;;;5029102;28;20142;-90
2022/12/24 06:50:16;;;;;;;8.45;3.30;;;;;;;;;;5023522;28;20037;-90
2022/12/24 06:52:44;;;;;;;10.35;3.72;;;;;;;;;;5031095;28;20442;-90
2022/12/24 06:55:12;;;;;;;8.88;3.90;;;;;;;;;;5016586;28;20065;-90
2022/12/24 06:57:40;;;;;;;8.68;3.60;;;;;;;;;;5032243;28;20065;-90
2022/12/24 07:00:10;;;;;;;8.77;2.90;;;;;;;;;;5016222;28;20048;-89
2022/12/24 07:02:42;;;;;;;10.65;3.45;;;;;;;;;;5032324;28;20044;-89
2022/12/24 07:05:11;;;;;;;9.93;2.80;;;;;;;;;;5032092;28;20463;-90
2022/12/24 07:07:40;;;;;;;7.00;3.05;;;;;;;;;;5030143;28;20049;-89
2022/12/24 07:10:13;;;;;;;7.25;3.10;;;;;;;;;;5033191;28;20064;-89
2022/12/24 07:12:41;;;;;;;5.88;2.83;;;;;;;;;;5034084;28;20038;-90
2022/12/24 07:15:10;;;;;;;7.05;3.05;;;;;;;;;;5014502;28;20068;-90
2022/12/24 07:17:39;;;;;;;7.47;3.45;;;;;;;;;;5015282;28;20080;-89
2022/12/24 07:20:10;;;;;;;6.82;2.95;;;;;;;;;;5033469;28;20478;-89
2022/12/24 07:22:38;;;;;;;6.90;2.22;;;;;;;;;;5005126;28;20073;-89
2022/12/24 07:25:30;;;;;;;5.90;2.63;;;;;;;;;;4996592;28;20377;-88
2022/12/24 07:27:58;;;;;;;7.45;3.17;;;;;;;;;;5011529;28;20042;-89
2022/12/24 07:30:26;;;;;;;7.68;3.05;;;;;;;;;;5014937;28;20038;-89
2022/12/24 07:32:58;;;;;;;8.90;2.55;;;;;;;;;;4990430;28;20388;-90
2022/12/24 07:35:26;;;;;;;5.60;3.08;;;;;;;;;;5032346;28;20172;-89
2022/12/24 07:37:54;;;;;;;5.68;2.75;;;;;;;;;;5027683;28;20045;-90
2022/12/24 07:40:22;;;;;;;6.63;2.80;;;;;;;;;;5007514;28;20615;-89
2022/12/24 07:42:50;;;;;;;7.15;3.00;;;;;;;;;;5032985;28;20047;-90
2022/12/24 07:45:18;;;;;;;7.95;3.10;;;;;;;;;;5030965;28;20042;-89
2022/12/24 07:47:50;;;;;;;8.18;3.17;;;;;;;;;;5031570;28;20041;-90
2022/12/24 07:50:18;;;;;;;6.15;2.63;;;;;;;;;;4997947;28;20069;-89
2022/12/24 07:52:46;;;;;;;7.85;3.35;;;;;;;;;;5029779;28;20069;-90
2022/12/24 07:55:14;;;;;;;8.23;2.90;;;;;;;;;;5014647;28;20126;-89
2022/12/24 07:57:46;;;;;;;6.93;2.65;;;;;;;;;;5029834;28;20042;-89
2022/12/24 08:00:14;;;;;;;7.13;2.70;;;;;;;;;;5029067;28;20075;-90
2022/12/24 08:02:42;;;;;;;5.15;2.85;;;;;;;;;;5032166;28;20050;-89
2022/12/24 08:05:10;;;;;;;8.20;3.10;;;;;;;;;;5028499;28;20037;-90
2022/12/24 08:07:38;;;;;;;4.47;2.53;;;;;;;;;;5031296;28;20047;-89
2022/12/24 08:10:10;;;;;;;6.82;2.50;;;;;;;;;;5014733;28;20075;-89
2022/12/24 08:12:38;;;;;;;8.55;3.10;;;;;;;;;;5029908;28;20045;-89
2022/12/24 08:15:06;;;;;;;7.55;3.03;;;;;;;;;;5027356;28;20129;-90
2022/12/24 08:17:38;;;;;;;7.35;3.17;;;;;;;;;;5028287;28;20095;-89
2022/12/24 08:20:07;;;;;;;7.05;2.97;;;;;;;;;;5033034;28;20434;-90
2022/12/24 08:22:34;;;;;;;7.72;3.15;;;;;;;;;;5029179;28;20050;-90
2022/12/24 08:25:07;;;;;;;8.35;3.10;;;;;;;;;;5013977;28;20041;-90
2022/12/24 08:28:24;;;;;;;6.90;2.97;;;;;;;;;;5027599;28;20534;-89
2022/12/24 08:31:01;;;;;;;5.88;2.42;;;;;;;;;;5004656;28;20053;-90
2022/12/24 08:33:28;;;;;;;6.55;2.80;;;;;;;;;;5026654;28;20454;-89
2022/12/24 08:35:57;;;;;;;7.75;3.30;;;;;;;;;;5032109;28;20044;-91
2022/12/24 08:38:24;;;;;;;7.65;2.60;;;;;;;;;;5003191;28;20045;-90
2022/12/24 08:40:53;;;;;;;8.23;3.88;;;;;;;;;;5024575;28;20507;-90
2022/12/24 08:43:21;;;;;;;7.95;3.20;;;;;;;;;;5011445;28;20068;-91
2022/12/24 08:45:48;;;;;;;8.43;3.63;;;;;;;;;;5011250;28;20033;-90
2022/12/24 08:48:40;;;;;;;7.85;3.55;;;;;;;;;;5020766;28;20041;-90
2022/12/24 08:51:12;;;;;;;8.60;3.50;;;;;;;;;;5032180;28;20499;-91
2022/12/24 08:53:40;;;;;;;7.50;3.42;;;;;;;;;;5022324;28;20042;-90
2022/12/24 08:56:09;;;;;;;6.88;3.05;;;;;;;;;;5025816;28;20037;-89
2022/12/24 08:58:37;;;;;;;8.07;3.20;;;;;;;;;;5025764;28;20029;-90
2022/12/24 09:01:16;;;;;;;9.73;3.55;;;;;;;;;;5009200;28;20055;-89
2022/12/24 09:03:45;;;;;;;5.43;2.72;;;;;;;;;;5007787;28;20037;-89
2022/12/24 09:06:13;;;;;;;8.52;3.60;;;;;;;;;;5021788;28;20037;-90
2022/12/24 09:08:40;;;;;;;8.40;3.25;;;;;;;;;;5023381;28;20064;-89
2022/12/24 09:11:14;;;;;;;5.85;2.83;;;;;;;;;;5031047;28;20576;-90
2022/12/24 09:13:46;;;;;;;9.45;3.08;;;;;;;;;;5027125;28;20581;-91
2022/12/24 09:16:14;;;;;;;9.48;3.83;;;;;;;;;;5031926;28;20125;-90
2022/12/24 09:18:48;;;;;;;7.43;3.20;;;;;;;;;;5013567;28;20119;-90
2022/12/24 09:21:17;;;;;;;7.15;3.20;;;;;;;;;;5032440;28;20077;-89
2022/12/24 09:23:47;;;;;;;7.18;3.00;;;;;;;;;;5007633;28;20107;-89
2022/12/24 09:26:20;;;;;;;8.27;2.83;;;;;;;;;;5007734;28;20079;-91
2022/12/24 09:28:49;;;;;;;6.60;2.92;;;;;;;;;;5020509;28;20045;-91
2022/12/24 09:31:17;;;;;;;8.00;3.22;;;;;;;;;;5027310;28;20041;-90
2022/12/24 09:33:46;;;;;;;7.20;3.00;;;;;;;;;;5026497;28;20123;-90
2022/12/24 09:37:03;;;;;;;6.65;2.90;;;;;;;;;;5030116;28;20041;-91
2022/12/24 09:39:54;;;;;;;8.82;3.05;;;;;;;;;;5003976;28;20033;-91
2022/12/24 09:45:37;;;;;;;7.30;3.15;;;;;;;;;;4999869;28;20064;-89
2022/12/24 09:48:32;;;;;;;9.90;3.67;;;;;;;;;;5030236;28;20041;-90
2022/12/24 09:51:08;;;;;;;6.97;3.17;;;;;;;;;;5029863;28;20033;-89
2022/12/24 09:53:49;;;;;;;9.20;3.30;;;;;;;;;;5027568;28;20088;-89
2022/12/24 09:56:20;;;;;;;10.13;3.63;;;;;;;;;;5031106;28;20030;-89
2022/12/24 09:58:52;;;;;;;7.15;3.17;;;;;;;;;;5027720;28;20034;-90
2022/12/24 10:01:20;;;;;;;8.45;3.50;;;;;;;;;;5033921;28;20048;-90
2022/12/24 10:03:48;;;;;;;7.18;3.40;;;;;;;;;;5012316;28;20049;-90
2022/12/24 10:07:11;;;;;;;8.48;3.92;;;;;;;;;;5017296;28;20041;-90
2022/12/24 10:09:52;;;;;;;6.75;3.22;;;;;;;;;;4988606;28;20500;-90
2022/12/24 10:12:42;;;;;;;6.97;3.20;;;;;;;;;;5000899;28;20411;-90
2022/12/24 10:16:06;;;;;;;8.05;3.97;;;;;;;;;;5014645;28;20042;-90
2022/12/24 10:19:01;;;;;;;11.45;4.03;;;;;;;;;;5021674;28;20117;-90
2022/12/24 10:21:46;;;;;;;7.32;3.17;;;;;;;;;;5009444;28;20132;-91
2022/12/24 10:24:27;;;;;;;10.10;3.72;;;;;;;;;;4989050;28;20037;-90
2022/12/24 10:27:32;;;;;;;8.82;3.75;;;;;;;;;;5032292;28;20049;-90
2022/12/24 10:30:19;;;;;;;8.30;3.85;;;;;;;;;;5024735;28;20034;-90
2022/12/24 10:32:49;;;;;;;7.20;3.33;;;;;;;;;;5022305;28;20038;-90
2022/12/24 10:35:19;;;;;;;8.60;3.85;;;;;;;;;;5031553;28;20057;-91
2022/12/24 10:38:12;;;;;;;6.90;3.55;;;;;;;;;;5007481;28;20092;-90
2022/12/24 10:40:50;;;;;;;8.15;3.80;;;;;;;;;;5029705;28;20061;-90
2022/12/24 10:43:44;;;;;;;7.45;3.33;;;;;;;;;;5025868;28;20120;-91
2022/12/24 10:49:39;;;;;;;10.88;3.83;;;;;;;;;;5007309;28;20045;-91
2022/12/24 10:52:24;;;;;;;8.65;3.70;;;;;;;;;;5008429;28;20043;-91
2022/12/24 10:55:21;;;;;;;7.75;3.25;;;;;;;;;;5022905;28;20033;-91
2022/12/24 10:58:06;;;;;;;8.55;4.38;;;;;;;;;;5016862;28;20068;-91
2022/12/24 11:00:58;;;;;;;8.43;3.80;;;;;;;;;;5032866;28;20041;-91
2022/12/24 11:03:33;;;;;;;9.52;4.40;;;;;;;;;;5013657;28;20119;-90
2022/12/24 11:06:08;;;;;;;8.45;3.75;;;;;;;;;;5009214;28;20492;-90
2022/12/24 11:09:19;;;;;;;8.55;3.85;;;;;;;;;;5015315;28;20035;-90
2022/12/24 11:11:54;;;;;;;9.70;4.65;;;;;;;;;;5034003;28;20041;-91
2022/12/24 11:14:47;;;;;;;8.38;3.70;;;;;;;;;;5013300;28;20029;-90
2022/12/24 11:17:22;;;;;;;8.57;4.55;;;;;;;;;;5033632;28;20041;-90
2022/12/24 11:19:50;;;;;;;8.73;4.25;;;;;;;;;;5029553;28;20036;-91
2022/12/24 11:22:48;;;;;;;11.07;4.72;;;;;;;;;;5032902;28;20041;-90
2022/12/24 11:25:23;;;;;;;8.38;4.25;;;;;;;;;;5030902;28;20037;-90
2022/12/24 11:28:11;;;;;;;9.13;4.90;;;;;;;;;;4998968;28;20121;-90
2022/12/24 11:31:18;;;;;;;11.20;5.50;;;;;;;;;;5035704;28;20038;-90
2022/12/24 11:33:50;;;;;;;10.52;5.25;;;;;;;;;;5030589;28;20120;-90
2022/12/24 11:36:21;;;;;;;11.15;5.20;;;;;;;;;;5020687;28;20521;-89
2022/12/24 11:39:23;;;;;;;10.85;5.50;;;;;;;;;;5030081;28;20034;-90
2022/12/24 11:41:56;;;;;;;10.48;5.55;;;;;;;;;;5012551;28;20029;-90
2022/12/24 11:44:26;;;;;;;10.73;5.32;;;;;;;;;;5034320;28;20047;-90
2022/12/24 11:46:57;;;;;;;8.52;4.72;;;;;;;;;;5034345;28;20033;-89
2022/12/24 11:49:33;;;;;;;9.20;4.40;;;;;;;;;;5025725;28;20403;-90
2022/12/24 11:52:12;;;;;;;9.85;5.00;;;;;;;;;;4993186;28;20136;-90
2022/12/24 11:55:08;;;;;;;11.57;5.10;;;;;;;;;;5029855;28;20515;-90
2022/12/24 11:57:51;;;;;;;10.38;5.05;;;;;;;;;;5018568;28;20038;-90
2022/12/24 12:00:45;;;;;;;10.73;5.63;;;;;;;;;;5007108;28;20056;-89
2022/12/24 12:03:29;;;;;;;12.93;5.88;;;;;;;;;;5016245;28;20041;-90
2022/12/24 12:06:00;;;;;;;10.32;5.47;;;;;;;;;;4999540;28;20034;-90
2022/12/24 12:08:34;;;;;;;11.00;5.88;;;;;;;;;;5018354;28;20048;-90
2022/12/24 12:11:11;;;;;;;13.50;6.82;;;;;;;;;;5025407;28;20084;-90
2022/12/24 12:13:45;;;;;;;12.05;5.90;;;;;;;;;;5036475;28;20041;-91
2022/12/24 12:16:24;;;;;;;13.65;6.53;;;;;;;;;;5031511;28;20038;-91
2022/12/24 12:19:02;;;;;;;11.05;5.15;;;;;;;;;;4999230;28;20045;-90
2022/12/24 12:21:44;;;;;;;15.00;7.13;;;;;;;;;;5029538;28;20045;-90
2022/12/24 12:24:28;;;;;;;22.98;10.23;;;;;;;;;;5031358;28;20037;-90
2022/12/24 12:27:27;;;;;;;15.65;8.45;;;;;;;;;;5000132;28;20037;-89
2022/12/24 12:30:05;;;;;;;15.05;6.93;;;;;;;;;;5019892;28;20045;-90
2022/12/24 12:33:18;;;;;;;19.05;7.35;;;;;;;;;;5004634;28;20033;-89
2022/12/24 12:35:47;;;;;;;15.52;7.18;;;;;;;;;;5017708;28;20037;-89
2022/12/24 12:38:27;;;;;;;13.07;6.47;;;;;;;;;;5017683;28;20095;-90
2022/12/24 12:41:18;;;;;;;12.35;6.00;;;;;;;;;;5028184;28;20033;-90
2022/12/24 12:44:18;;;;;;;14.30;6.53;;;;;;;;;;4996006;28;20141;-89
2022/12/24 12:47:22;;;;;;;16.17;6.43;;;;;;;;;;5024976;28;20041;-90
2022/12/24 12:50:02;;;;;;;13.73;6.30;;;;;;;;;;5009489;28;20105;-90
2022/12/24 12:52:55;;;;;;;14.77;6.10;;;;;;;;;;5012471;28;20414;-89
2022/12/24 12:55:48;;;;;;;11.80;5.25;;;;;;;;;;5017282;28;20034;-89
2022/12/24 12:58:26;;;;;;;11.93;5.75;;;;;;;;;;5014707;28;20475;-89
2022/12/24 13:01:05;;;;;;;12.07;6.05;;;;;;;;;;5027068;28;20047;-89
2022/12/24 13:03:51;;;;;;;16.23;6.22;;;;;;;;;;5008479;28;20049;-89
2022/12/24 13:06:53;;;;;;;13.07;6.03;;;;;;;;;;5028804;28;20499;-90
2022/12/24 13:09:36;;;;;;;13.43;6.85;;;;;;;;;;5028722;28;20047;-89
2022/12/24 13:12:26;;;;;;;13.48;6.32;;;;;;;;;;4999025;28;20057;-89
2022/12/24 13:15:01;;;;;;;17.27;6.72;;;;;;;;;;5027834;28;20451;-89
2022/12/24 13:17:53;;;;;;;14.43;6.05;;;;;;;;;;5025277;28;20107;-89
2022/12/24 13:20:37;;;;;;;19.83;6.43;;;;;;;;;;5029806;28;20107;-90
2022/12/24 13:23:22;;;;;;;15.70;6.95;;;;;;;;;;5027265;28;20045;-89
2022/12/24 13:25:57;;;;;;;15.60;7.32;;;;;;;;;;5003364;28;20038;-89
2022/12/24 13:28:24;;;;;;;13.57;7.18;;;;;;;;;;5000174;28;20069;-89
2022/12/24 13:31:23;;;;;;;18.23;7.50;;;;;;;;;;4988947;28;20058;-90
2022/12/24 13:33:53;;;;;;;16.00;7.22;;;;;;;;;;4992441;28;20048;-89
2022/12/24 13:36:21;;;;;;;16.50;7.57;;;;;;;;;;5025482;28;20064;-90
2022/12/24 13:39:18;;;;;;;17.23;7.57;;;;;;;;;;5001509;28;20037;-89
2022/12/24 13:41:49;;;;;;;21.48;11.23;;;;;;;;;;5017450;28;20041;-89
2022/12/24 13:44:19;;;;;;;22.15;11.18;;;;;;;;;;5026279;28;20544;-90
2022/12/24 13:46:46;;;;;;;26.52;11.02;;;;;;;;;;5006903;28;20038;-90
2022/12/24 13:49:25;;;;;;;24.92;9.23;;;;;;;;;;5025516;28;20499;-89
2022/12/24 13:52:10;;;;;;;21.38;9.43;;;;;;;;;;5023745;28;20062;-90
2022/12/24 13:54:49;;;;;;;17.35;8.70;;;;;;;;;;5024495;28;20071;-90
2022/12/24 13:57:52;;;;;;;26.67;8.40;;;;;;;;;;5005705;28;20030;-90
2022/12/24 14:00:20;;;;;;;23.33;9.00;;;;;;;;;;5030224;28;20528;-90
2022/12/24 14:02:56;;;;;;;25.92;10.27;;;;;;;;;;5019356;28;20052;-91
2022/12/24 14:05:32;;;;;;;19.42;8.60;;;;;;;;;;5010603;28;20037;-92
2022/12/24 14:08:46;;;;;;;26.67;9.80;;;;;;;;;;5027059;28;20069;-92
2022/12/24 14:11:20;;;;;;;28.95;10.82;;;;;;;;;;5026556;28;20056;-88
2022/12/24 14:13:50;;;;;;;25.60;10.85;;;;;;;;;;5026377;28;20045;-90
2022/12/24 14:16:22;;;;;;;28.40;9.45;;;;;;;;;;5023307;28;20030;-90
2022/12/24 14:19:09;;;;;;;21.88;9.10;;;;;;;;;;5029429;28;20056;-90
2022/12/24 14:21:44;;;;;;;17.83;9.32;;;;;;;;;;5030840;28;20037;-90
2022/12/24 14:24:40;;;;;;;21.67;9.18;;;;;;;;;;4998576;28;20112;-90
2022/12/24 14:27:18;;;;;;;28.13;10.40;;;;;;;;;;5031953;28;20060;-91
2022/12/24 14:30:01;;;;;;;25.05;9.35;;;;;;;;;;5011845;28;20049;-90
2022/12/24 14:32:38;;;;;;;17.48;9.68;;;;;;;;;;5029914;28;20057;-90
2022/12/24 14:35:37;;;;;;;22.52;10.23;;;;;;;;;;5032497;28;20589;-89
2022/12/24 14:38:29;;;;;;;28.23;10.52;;;;;;;;;;5022964;28;20041;-90
2022/12/24 14:41:07;;;;;;;23.65;10.20;;;;;;;;;;5024580;28;20037;-90
2022/12/24 14:44:26;;;;;;;26.27;10.30;;;;;;;;;;5000990;28;20040;-89
2022/12/24 14:47:51;;;;;;;25.77;9.80;;;;;;;;;;5027355;28;20037;-89
2022/12/24 14:50:42;;;;;;;24.40;10.55;;;;;;;;;;5007454;28;20247;-89
2022/12/24 14:54:05;;;;;;;24.77;11.02;;;;;;;;;;5031939;28;20047;-90
2022/12/24 14:56:38;;;;;;;20.73;10.55;;;;;;;;;;5014464;28;20068;-89
2022/12/24 14:59:30;;;;;;;25.05;10.95;;;;;;;;;;5029711;28;20037;-90
2022/12/24 15:02:40;;;;;;;23.00;10.68;;;;;;;;;;5020737;28;20133;-89
2022/12/24 15:05:23;;;;;;;21.00;9.55;;;;;;;;;;5029585;28;20045;-89
2022/12/24 15:08:02;;;;;;;28.35;10.50;;;;;;;;;;5024774;28;20053;-90
2022/12/24 15:10:40;;;;;;;21.25;9.98;;;;;;;;;;5028068;28;20052;-89
2022/12/24 15:13:29;;;;;;;26.63;9.23;;;;;;;;;;5021038;28;20054;-89
2022/12/24 15:16:06;;;;;;;28.90;9.13;;;;;;;;;;5033199;28;20121;-90
2022/12/24 15:18:40;;;;;;;24.23;8.68;;;;;;;;;;5038553;28;20076;-89
2022/12/24 15:21:41;;;;;;;21.08;8.40;;;;;;;;;;5033967;28;20201;-90
2022/12/24 15:24:27;;;;;;;24.10;8.63;;;;;;;;;;5022990;28;20148;-89
2022/12/24 15:26:55;;;;;;;21.30;8.70;;;;;;;;;;5036073;28;20121;-89
2022/12/24 15:29:31;;;;;;;19.98;9.02;;;;;;;;;;5012027;28;20134;-89
2022/12/24 15:32:02;;;;;;;25.27;9.73;;;;;;;;;;5006604;28;20140;-89
2022/12/24 15:34:38;;;;;;;21.85;8.82;;;;;;;;;;5015954;28;20042;-89
2022/12/24 15:37:15;;;;;;;27.52;9.27;;;;;;;;;;5012762;28;20108;-89
2022/12/24 15:40:01;;;;;;;28.45;9.45;;;;;;;;;;5020758;28;20120;-89
2022/12/24 15:42:28;;;;;;;25.60;9.60;;;;;;;;;;5019024;28;20042;-89
2022/12/24 15:45:05;;;;;;;20.17;9.55;;;;;;;;;;5025674;28;20117;-90
2022/12/24 15:47:38;;;;;;;24.33;10.07;;;;;;;;;;5006480;28;20404;-90
2022/12/24 15:50:32;;;;;;;29.80;9.93;;;;;;;;;;5021469;28;20042;-89
2022/12/24 15:53:40;;;;;;;28.35;10.52;;;;;;;;;;5020215;28;20177;-89
2022/12/24 15:56:37;;;;;;;22.50;10.40;;;;;;;;;;5020385;28;20033;-90
2022/12/24 15:59:27;;;;;;;32.95;11.35;;;;;;;;;;5016925;28;20113;-90